Kezdőlap
METAR-TAF:

METAR-TAF

Repülőterek :

Stevens Point Municipal Airport

Stevens Point, Wisconsin, Amerikai Egyesült Államok

földrajzi szélesség: 44-32-42N, földrajzi hosszúság: 089-31-49W, magasság: 338 m

Jelenlegi meteorológiai megfigyelések

A jelentés 31 perccel ezelõtt készült, 17:35 UTC
Nyugat-délnyugati szél 7 kt
Hőmérséklet 11°C
Páratartalom 76%
Légköri nyomás 1017 hPa
Látótávolság: 16.1 km
Szakadozott felhőzet 2100 lábon
Szakadozott felhőzet 2700 lábon
Borult 3600 lábon
szitálás

METAR: KSTE 181735Z AUTO 25007KT 10SM DZ BKN021 BKN027 OVC036 11/07 A3002 RMK AO2 T01060069

Idő: 13:06 (18:06 UTC)


TAF: hiányzik

Meteorológiai megfigyelések és előrejelzések több, mint 4000 repülőtéren (METAR és TAF jelentéseket).

A térképen piros és sárga pontok jelzik az elérhető meteorológiai állomásokat.

Mozgassa az egeret a pont fölött, hogy megjelenjen az állomás neve.

Azután kattintson az időjárási megfigyelések és előrejelzések megtekintéséhez.

A térkép megváltoztatása: kattintson a fekete keresztel jelölt zöld gombra ráközelítéshez, a vonallal jelölt zöld gombra távolításhoz, vagy a zöld nyilakra a szomszédos térképek eléréséhez.


METAR-TAF: